Terminal Aerodrome Forecast
Issued by NWS

Home | Current Version | Previous Version | Graphics & Text | Print | Product List | Glossary On
Versions: 1 2 3 4 5 6 7 8 9 10 11 12 13 14 15 16 17 18 19
808
FTUS43 KMPX 250100 AAA
TAFAXN
TAF AMD
KAXN 250100Z 2501/2524 15013KT P6SM VCTS SCT015CB OVC050
     FM250600 18010KT P6SM FEW050
     FM251500 25014G22KT P6SM OVC050
     FM251900 29020G30KT P6SM VCSH OVC025=

USA.gov is the U.S. government's official web portal to all federal, state and local government web resources and services.